sensor_id;sensor_type;location;lat;lon;timestamp;P1;durP1;ratioP1;P2;durP2;ratioP2
64615;SDS011;51027;42.162;24.754;2023-06-26T03:33:42;20.88;;;10.75;;
64615;SDS011;51027;42.162;24.754;2023-06-26T03:36:07;21.98;;;10.85;;
64615;SDS011;51027;42.162;24.754;2023-06-26T03:38:33;21.67;;;10.70;;
64615;SDS011;51027;42.162;24.754;2023-06-26T03:40:58;24.63;;;11.68;;
64615;SDS011;51027;42.162;24.754;2023-06-26T03:43:24;23.73;;;12.23;;
64615;SDS011;51027;42.162;24.754;2023-06-26T03:45:49;24.58;;;11.10;;
64615;SDS011;51027;42.162;24.754;2023-06-26T03:48:15;24.83;;;12.40;;
64615;SDS011;51027;42.162;24.754;2023-06-26T03:50:40;25.17;;;11.20;;
64615;SDS011;51027;42.162;24.754;2023-06-26T03:53:05;26.20;;;12.80;;
64615;SDS011;51027;42.162;24.754;2023-06-26T03:55:31;24.92;;;12.05;;
64615;SDS011;51027;42.162;24.754;2023-06-26T03:57:56;24.35;;;11.73;;
64615;SDS011;51027;42.162;24.754;2023-06-26T04:00:22;23.85;;;11.30;;
64615;SDS011;51027;42.162;24.754;2023-06-26T04:02:47;26.50;;;12.35;;
64615;SDS011;51027;42.162;24.754;2023-06-26T04:05:13;23.38;;;12.10;;
64615;SDS011;51027;42.162;24.754;2023-06-26T04:07:39;24.25;;;11.35;;
64615;SDS011;51027;42.162;24.754;2023-06-26T04:10:05;23.38;;;11.73;;
64615;SDS011;51027;42.162;24.754;2023-06-26T04:12:31;25.35;;;12.30;;
64615;SDS011;51027;42.162;24.754;2023-06-26T04:14:57;24.50;;;11.98;;
64615;SDS011;51027;42.162;24.754;2023-06-26T04:17:22;24.77;;;11.55;;
64615;SDS011;51027;42.162;24.754;2023-06-26T04:19:47;25.52;;;13.35;;
64615;SDS011;51027;42.162;24.754;2023-06-26T04:22:13;24.25;;;12.07;;
64615;SDS011;51027;42.162;24.754;2023-06-26T04:24:38;23.52;;;11.88;;
64615;SDS011;51027;42.162;24.754;2023-06-26T04:27:04;25.05;;;12.20;;
64615;SDS011;51027;42.162;24.754;2023-06-26T04:29:30;24.15;;;12.32;;
64615;SDS011;51027;42.162;24.754;2023-06-26T04:31:56;25.40;;;11.02;;
64615;SDS011;51027;42.162;24.754;2023-06-26T04:34:24;24.90;;;12.00;;
64615;SDS011;51027;42.162;24.754;2023-06-26T04:36:50;22.73;;;11.70;;
64615;SDS011;51027;42.162;24.754;2023-06-26T04:39:16;25.80;;;12.40;;
64615;SDS011;51027;42.162;24.754;2023-06-26T04:41:42;22.90;;;11.88;;
64615;SDS011;51027;42.162;24.754;2023-06-26T04:44:07;26.83;;;12.50;;
64615;SDS011;51027;42.162;24.754;2023-06-26T04:46:33;26.45;;;12.68;;
64615;SDS011;51027;42.162;24.754;2023-06-26T04:48:58;24.17;;;12.32;;
64615;SDS011;51027;42.162;24.754;2023-06-26T04:51:24;23.42;;;11.40;;
64615;SDS011;51027;42.162;24.754;2023-06-26T04:53:52;22.90;;;11.52;;
64615;SDS011;51027;42.162;24.754;2023-06-26T04:56:17;24.77;;;12.75;;
64615;SDS011;51027;42.162;24.754;2023-06-26T04:58:43;24.70;;;12.80;;
64615;SDS011;51027;42.162;24.754;2023-06-26T05:01:08;24.10;;;12.77;;
64615;SDS011;51027;42.162;24.754;2023-06-26T05:03:33;24.98;;;11.75;;
64615;SDS011;51027;42.162;24.754;2023-06-26T05:06:00;26.20;;;12.10;;
64615;SDS011;51027;42.162;24.754;2023-06-26T05:08:25;24.02;;;10.73;;
64615;SDS011;51027;42.162;24.754;2023-06-26T05:10:52;24.10;;;11.70;;
64615;SDS011;51027;42.162;24.754;2023-06-26T05:13:25;23.15;;;11.93;;
64615;SDS011;51027;42.162;24.754;2023-06-26T05:15:51;23.98;;;12.05;;
64615;SDS011;51027;42.162;24.754;2023-06-26T05:18:17;23.75;;;11.55;;
64615;SDS011;51027;42.162;24.754;2023-06-26T05:20:43;22.13;;;11.95;;
64615;SDS011;51027;42.162;24.754;2023-06-26T05:23:10;23.10;;;11.70;;
64615;SDS011;51027;42.162;24.754;2023-06-26T05:25:36;19.52;;;10.35;;
64615;SDS011;51027;42.162;24.754;2023-06-26T05:28:02;21.17;;;11.13;;
64615;SDS011;51027;42.162;24.754;2023-06-26T05:30:30;23.70;;;11.32;;
64615;SDS011;51027;42.162;24.754;2023-06-26T05:32:56;21.48;;;10.52;;
64615;SDS011;51027;42.162;24.754;2023-06-26T05:35:25;18.40;;;10.00;;
64615;SDS011;51027;42.162;24.754;2023-06-26T05:37:55;20.13;;;9.27;;
64615;SDS011;51027;42.162;24.754;2023-06-26T05:40:22;22.45;;;11.75;;
64615;SDS011;51027;42.162;24.754;2023-06-26T05:42:48;23.45;;;10.25;;
64615;SDS011;51027;42.162;24.754;2023-06-26T05:45:14;28.13;;;11.02;;
64615;SDS011;51027;42.162;24.754;2023-06-26T05:47:40;21.42;;;10.98;;
64615;SDS011;51027;42.162;24.754;2023-06-26T05:50:06;23.63;;;11.60;;
64615;SDS011;51027;42.162;24.754;2023-06-26T05:52:33;22.83;;;11.18;;
64615;SDS011;51027;42.162;24.754;2023-06-26T05:54:58;21.33;;;10.85;;
64615;SDS011;51027;42.162;24.754;2023-06-26T05:57:25;21.63;;;11.07;;
64615;SDS011;51027;42.162;24.754;2023-06-26T05:59:52;22.90;;;10.73;;
64615;SDS011;51027;42.162;24.754;2023-06-26T06:02:18;20.58;;;10.32;;
64615;SDS011;51027;42.162;24.754;2023-06-26T06:04:43;22.27;;;10.23;;
64615;SDS011;51027;42.162;24.754;2023-06-26T06:07:08;20.48;;;10.48;;
64615;SDS011;51027;42.162;24.754;2023-06-26T06:09:34;20.38;;;9.85;;
64615;SDS011;51027;42.162;24.754;2023-06-26T06:11:59;22.35;;;10.77;;
64615;SDS011;51027;42.162;24.754;2023-06-26T06:14:26;20.23;;;9.75;;
64615;SDS011;51027;42.162;24.754;2023-06-26T06:16:52;20.85;;;10.05;;
64615;SDS011;51027;42.162;24.754;2023-06-26T06:19:18;21.58;;;10.75;;
64615;SDS011;51027;42.162;24.754;2023-06-26T06:21:43;20.52;;;10.52;;
64615;SDS011;51027;42.162;24.754;2023-06-26T06:24:09;20.23;;;10.35;;
64615;SDS011;51027;42.162;24.754;2023-06-26T06:26:34;20.25;;;9.88;;
64615;SDS011;51027;42.162;24.754;2023-06-26T06:29:00;20.27;;;10.10;;
64615;SDS011;51027;42.162;24.754;2023-06-26T06:31:26;20.83;;;10.50;;
64615;SDS011;51027;42.162;24.754;2023-06-26T06:33:53;20.58;;;10.32;;
64615;SDS011;51027;42.162;24.754;2023-06-26T06:36:22;21.65;;;10.32;;
64615;SDS011;51027;42.162;24.754;2023-06-26T06:38:47;22.73;;;9.98;;
64615;SDS011;51027;42.162;24.754;2023-06-26T06:41:13;19.25;;;10.07;;
64615;SDS011;51027;42.162;24.754;2023-06-26T06:43:38;19.70;;;9.68;;
64615;SDS011;51027;42.162;24.754;2023-06-26T06:46:04;18.98;;;9.07;;
64615;SDS011;51027;42.162;24.754;2023-06-26T06:48:30;20.60;;;9.02;;
64615;SDS011;51027;42.162;24.754;2023-06-26T06:50:56;20.35;;;9.40;;
64615;SDS011;51027;42.162;24.754;2023-06-26T06:53:21;23.52;;;9.40;;
64615;SDS011;51027;42.162;24.754;2023-06-26T06:55:48;19.15;;;9.23;;
64615;SDS011;51027;42.162;24.754;2023-06-26T06:58:13;17.30;;;8.35;;
64615;SDS011;51027;42.162;24.754;2023-06-26T07:00:39;19.40;;;9.32;;
64615;SDS011;51027;42.162;24.754;2023-06-26T07:03:04;19.92;;;9.48;;
64615;SDS011;51027;42.162;24.754;2023-06-26T07:05:30;17.42;;;8.43;;
64615;SDS011;51027;42.162;24.754;2023-06-26T07:07:55;18.67;;;8.98;;
64615;SDS011;51027;42.162;24.754;2023-06-26T07:10:20;17.42;;;8.32;;
64615;SDS011;51027;42.162;24.754;2023-06-26T07:12:46;17.00;;;8.20;;
64615;SDS011;51027;42.162;24.754;2023-06-26T07:15:12;19.92;;;8.45;;
64615;SDS011;51027;42.162;24.754;2023-06-26T07:17:37;18.52;;;8.45;;
64615;SDS011;51027;42.162;24.754;2023-06-26T07:20:04;18.88;;;8.68;;
64615;SDS011;51027;42.162;24.754;2023-06-26T07:22:36;18.48;;;8.95;;
64615;SDS011;51027;42.162;24.754;2023-06-26T07:25:01;19.35;;;9.23;;
64615;SDS011;51027;42.162;24.754;2023-06-26T07:27:28;18.80;;;9.27;;
64615;SDS011;51027;42.162;24.754;2023-06-26T07:29:54;17.55;;;8.10;;
64615;SDS011;51027;42.162;24.754;2023-06-26T07:32:20;18.02;;;8.50;;
64615;SDS011;51027;42.162;24.754;2023-06-26T07:34:45;18.48;;;8.40;;
64615;SDS011;51027;42.162;24.754;2023-06-26T07:37:10;19.77;;;8.13;;
64615;SDS011;51027;42.162;24.754;2023-06-26T07:39:36;17.70;;;7.95;;
64615;SDS011;51027;42.162;24.754;2023-06-26T07:42:01;17.10;;;7.75;;
64615;SDS011;51027;42.162;24.754;2023-06-26T07:44:27;20.25;;;8.55;;
64615;SDS011;51027;42.162;24.754;2023-06-26T07:46:52;17.13;;;7.60;;
64615;SDS011;51027;42.162;24.754;2023-06-26T07:49:18;17.20;;;7.68;;
64615;SDS011;51027;42.162;24.754;2023-06-26T07:51:43;17.13;;;8.13;;
64615;SDS011;51027;42.162;24.754;2023-06-26T07:54:09;16.73;;;7.50;;
64615;SDS011;51027;42.162;24.754;2023-06-26T07:56:59;17.63;;;8.07;;
64615;SDS011;51027;42.162;24.754;2023-06-26T07:59:32;16.17;;;8.00;;
64615;SDS011;51027;42.162;24.754;2023-06-26T08:01:58;16.77;;;7.45;;
64615;SDS011;51027;42.162;24.754;2023-06-26T08:04:25;17.13;;;7.70;;
64615;SDS011;51027;42.162;24.754;2023-06-26T08:06:53;18.13;;;7.93;;
64615;SDS011;51027;42.162;24.754;2023-06-26T08:09:22;17.13;;;7.95;;
64615;SDS011;51027;42.162;24.754;2023-06-26T08:11:49;17.95;;;8.63;;
64615;SDS011;51027;42.162;24.754;2023-06-26T08:14:17;16.98;;;8.02;;
64615;SDS011;51027;42.162;24.754;2023-06-26T08:16:44;17.70;;;8.07;;
64615;SDS011;51027;42.162;24.754;2023-06-26T08:19:11;19.02;;;8.35;;
64615;SDS011;51027;42.162;24.754;2023-06-26T08:21:37;23.00;;;9.00;;
64615;SDS011;51027;42.162;24.754;2023-06-26T08:24:02;24.48;;;9.60;;
64615;SDS011;51027;42.162;24.754;2023-06-26T08:26:28;22.95;;;9.50;;
64615;SDS011;51027;42.162;24.754;2023-06-26T08:28:53;21.63;;;9.32;;
64615;SDS011;51027;42.162;24.754;2023-06-26T08:31:19;23.58;;;10.50;;
64615;SDS011;51027;42.162;24.754;2023-06-26T08:33:45;27.15;;;11.80;;
64615;SDS011;51027;42.162;24.754;2023-06-26T08:36:11;21.90;;;10.85;;
64615;SDS011;51027;42.162;24.754;2023-06-26T08:38:37;25.23;;;11.23;;
64615;SDS011;51027;42.162;24.754;2023-06-26T08:41:05;23.50;;;11.55;;
64615;SDS011;51027;42.162;24.754;2023-06-26T08:43:31;28.75;;;11.77;;
64615;SDS011;51027;42.162;24.754;2023-06-26T08:45:57;20.98;;;11.13;;
64615;SDS011;51027;42.162;24.754;2023-06-26T08:48:22;22.58;;;10.85;;
64615;SDS011;51027;42.162;24.754;2023-06-26T08:50:49;22.52;;;10.65;;
64615;SDS011;51027;42.162;24.754;2023-06-26T08:53:29;23.42;;;11.57;;
64615;SDS011;51027;42.162;24.754;2023-06-26T08:56:02;24.05;;;10.88;;
64615;SDS011;51027;42.162;24.754;2023-06-26T08:58:28;21.77;;;11.25;;
64615;SDS011;51027;42.162;24.754;2023-06-26T09:00:54;20.25;;;10.07;;
64615;SDS011;51027;42.162;24.754;2023-06-26T09:03:21;24.08;;;11.40;;
64615;SDS011;51027;42.162;24.754;2023-06-26T09:05:46;20.00;;;10.02;;
64615;SDS011;51027;42.162;24.754;2023-06-26T09:08:12;20.95;;;10.82;;
64615;SDS011;51027;42.162;24.754;2023-06-26T09:10:38;20.95;;;10.02;;
64615;SDS011;51027;42.162;24.754;2023-06-26T09:13:04;19.63;;;9.48;;
64615;SDS011;51027;42.162;24.754;2023-06-26T09:16:03;21.77;;;10.52;;
64615;SDS011;51027;42.162;24.754;2023-06-26T09:18:22;18.70;;;10.02;;
64615;SDS011;51027;42.162;24.754;2023-06-26T09:20:47;19.52;;;9.80;;
64615;SDS011;51027;42.162;24.754;2023-06-26T09:23:13;18.15;;;8.90;;
64615;SDS011;51027;42.162;24.754;2023-06-26T09:25:39;20.25;;;9.63;;
64615;SDS011;51027;42.162;24.754;2023-06-26T09:28:05;18.63;;;8.50;;
64615;SDS011;51027;42.162;24.754;2023-06-26T09:30:33;20.75;;;9.60;;
64615;SDS011;51027;42.162;24.754;2023-06-26T09:33:18;19.80;;;9.38;;
64615;SDS011;51027;42.162;24.754;2023-06-26T09:35:44;17.23;;;8.15;;
64615;SDS011;51027;42.162;24.754;2023-06-26T09:38:13;17.02;;;8.18;;
64615;SDS011;51027;42.162;24.754;2023-06-26T09:40:39;19.98;;;9.48;;
64615;SDS011;51027;42.162;24.754;2023-06-26T09:43:06;18.52;;;8.20;;
64615;SDS011;51027;42.162;24.754;2023-06-26T09:45:35;20.17;;;8.20;;
64615;SDS011;51027;42.162;24.754;2023-06-26T09:48:01;15.00;;;6.28;;
64615;SDS011;51027;42.162;24.754;2023-06-26T09:50:29;16.65;;;6.50;;
64615;SDS011;51027;42.162;24.754;2023-06-26T09:52:55;15.48;;;5.93;;
64615;SDS011;51027;42.162;24.754;2023-06-26T09:55:20;15.45;;;5.63;;
64615;SDS011;51027;42.162;24.754;2023-06-26T09:57:47;17.05;;;5.20;;
64615;SDS011;51027;42.162;24.754;2023-06-26T10:00:15;14.43;;;5.15;;
64615;SDS011;51027;42.162;24.754;2023-06-26T10:02:41;17.45;;;5.72;;
64615;SDS011;51027;42.162;24.754;2023-06-26T10:05:06;16.05;;;5.18;;
64615;SDS011;51027;42.162;24.754;2023-06-26T10:07:32;17.45;;;6.97;;
64615;SDS011;51027;42.162;24.754;2023-06-26T10:09:58;19.05;;;6.45;;
64615;SDS011;51027;42.162;24.754;2023-06-26T10:12:27;16.90;;;6.30;;
64615;SDS011;51027;42.162;24.754;2023-06-26T10:14:58;18.20;;;6.85;;
64615;SDS011;51027;42.162;24.754;2023-06-26T10:17:25;17.00;;;6.35;;
64615;SDS011;51027;42.162;24.754;2023-06-26T10:19:54;18.58;;;7.72;;
64615;SDS011;51027;42.162;24.754;2023-06-26T10:22:21;19.20;;;7.95;;
64615;SDS011;51027;42.162;24.754;2023-06-26T10:24:50;20.88;;;8.00;;
64615;SDS011;51027;42.162;24.754;2023-06-26T10:27:18;19.05;;;8.38;;
64615;SDS011;51027;42.162;24.754;2023-06-26T10:29:49;17.38;;;7.43;;
64615;SDS011;51027;42.162;24.754;2023-06-26T10:32:18;18.20;;;7.57;;
64615;SDS011;51027;42.162;24.754;2023-06-26T10:34:45;20.52;;;9.00;;
64615;SDS011;51027;42.162;24.754;2023-06-26T10:37:11;18.60;;;8.05;;
64615;SDS011;51027;42.162;24.754;2023-06-26T10:42:16;15.15;;;6.93;;
64615;SDS011;51027;42.162;24.754;2023-06-26T10:44:44;18.35;;;7.60;;
64615;SDS011;51027;42.162;24.754;2023-06-26T11:03:38;16.88;;;6.70;;
64615;SDS011;51027;42.162;24.754;2023-06-26T11:06:10;16.75;;;6.55;;
64615;SDS011;51027;42.162;24.754;2023-06-26T11:11:16;19.92;;;8.40;;
64615;SDS011;51027;42.162;24.754;2023-06-26T11:13:42;17.98;;;7.95;;
64615;SDS011;51027;42.162;24.754;2023-06-26T11:16:09;18.35;;;8.20;;
64615;SDS011;51027;42.162;24.754;2023-06-26T11:18:36;18.90;;;8.07;;
64615;SDS011;51027;42.162;24.754;2023-06-26T11:21:08;17.52;;;7.88;;
64615;SDS011;51027;42.162;24.754;2023-06-26T11:23:36;17.92;;;7.75;;
64615;SDS011;51027;42.162;24.754;2023-06-26T11:26:17;17.13;;;7.22;;
64615;SDS011;51027;42.162;24.754;2023-06-26T11:28:50;16.85;;;6.78;;
64615;SDS011;51027;42.162;24.754;2023-06-26T11:34:02;17.73;;;7.35;;
64615;SDS011;51027;42.162;24.754;2023-06-26T11:36:29;19.55;;;8.15;;
64615;SDS011;51027;42.162;24.754;2023-06-26T11:38:56;18.48;;;9.63;;
64615;SDS011;51027;42.162;24.754;2023-06-26T11:41:27;19.10;;;9.48;;
64615;SDS011;51027;42.162;24.754;2023-06-26T11:44:00;17.77;;;8.30;;
64615;SDS011;51027;42.162;24.754;2023-06-26T11:46:29;17.33;;;8.02;;
64615;SDS011;51027;42.162;24.754;2023-06-26T11:48:55;16.85;;;7.35;;
64615;SDS011;51027;42.162;24.754;2023-06-26T11:51:21;17.60;;;7.35;;
64615;SDS011;51027;42.162;24.754;2023-06-26T11:53:46;18.35;;;8.23;;
64615;SDS011;51027;42.162;24.754;2023-06-26T11:56:14;17.42;;;8.63;;
64615;SDS011;51027;42.162;24.754;2023-06-26T12:01:41;19.38;;;9.13;;
64615;SDS011;51027;42.162;24.754;2023-06-26T12:04:10;20.13;;;8.98;;
64615;SDS011;51027;42.162;24.754;2023-06-26T12:06:37;19.98;;;9.05;;
64615;SDS011;51027;42.162;24.754;2023-06-26T12:09:07;17.60;;;8.35;;
64615;SDS011;51027;42.162;24.754;2023-06-26T12:11:36;17.15;;;8.52;;
64615;SDS011;51027;42.162;24.754;2023-06-26T12:14:04;17.23;;;8.18;;
64615;SDS011;51027;42.162;24.754;2023-06-26T12:16:30;18.05;;;8.45;;
64615;SDS011;51027;42.162;24.754;2023-06-26T12:19:02;19.10;;;8.82;;
64615;SDS011;51027;42.162;24.754;2023-06-26T12:21:43;16.70;;;8.07;;
64615;SDS011;51027;42.162;24.754;2023-06-26T12:24:15;17.08;;;7.75;;
64615;SDS011;51027;42.162;24.754;2023-06-26T12:26:43;16.13;;;7.25;;
64615;SDS011;51027;42.162;24.754;2023-06-26T12:29:14;18.25;;;7.93;;
64615;SDS011;51027;42.162;24.754;2023-06-26T12:31:43;18.55;;;7.55;;
64615;SDS011;51027;42.162;24.754;2023-06-26T12:34:14;18.73;;;8.00;;
64615;SDS011;51027;42.162;24.754;2023-06-26T12:36:45;16.65;;;7.75;;
64615;SDS011;51027;42.162;24.754;2023-06-26T12:39:15;16.08;;;7.70;;
64615;SDS011;51027;42.162;24.754;2023-06-26T12:42:00;15.93;;;7.53;;
64615;SDS011;51027;42.162;24.754;2023-06-26T12:44:29;15.70;;;6.03;;
64615;SDS011;51027;42.162;24.754;2023-06-26T12:47:01;17.02;;;6.10;;
64615;SDS011;51027;42.162;24.754;2023-06-26T12:49:49;15.60;;;5.97;;
64615;SDS011;51027;42.162;24.754;2023-06-26T12:52:16;14.60;;;6.40;;
64615;SDS011;51027;42.162;24.754;2023-06-26T12:54:43;17.05;;;6.88;;
64615;SDS011;51027;42.162;24.754;2023-06-26T12:57:09;17.92;;;6.88;;
64615;SDS011;51027;42.162;24.754;2023-06-26T12:59:38;17.95;;;6.93;;
64615;SDS011;51027;42.162;24.754;2023-06-26T13:02:04;16.23;;;6.88;;
64615;SDS011;51027;42.162;24.754;2023-06-26T13:04:30;15.63;;;7.10;;
64615;SDS011;51027;42.162;24.754;2023-06-26T13:06:56;16.45;;;7.18;;
64615;SDS011;51027;42.162;24.754;2023-06-26T13:09:22;17.67;;;6.88;;
64615;SDS011;51027;42.162;24.754;2023-06-26T13:11:50;16.25;;;6.93;;
64615;SDS011;51027;42.162;24.754;2023-06-26T13:14:18;14.68;;;5.97;;
64615;SDS011;51027;42.162;24.754;2023-06-26T13:16:44;14.80;;;5.80;;
64615;SDS011;51027;42.162;24.754;2023-06-26T13:19:09;12.75;;;4.63;;
64615;SDS011;51027;42.162;24.754;2023-06-26T13:21:35;15.43;;;5.65;;
64615;SDS011;51027;42.162;24.754;2023-06-26T13:24:01;12.85;;;5.13;;
64615;SDS011;51027;42.162;24.754;2023-06-26T13:26:29;17.10;;;5.57;;
64615;SDS011;51027;42.162;24.754;2023-06-26T13:28:55;15.45;;;5.80;;
64615;SDS011;51027;42.162;24.754;2023-06-26T13:31:21;15.32;;;6.10;;
64615;SDS011;51027;42.162;24.754;2023-06-26T13:33:47;15.10;;;6.07;;
64615;SDS011;51027;42.162;24.754;2023-06-26T13:36:19;15.32;;;6.05;;
64615;SDS011;51027;42.162;24.754;2023-06-26T13:38:44;17.13;;;6.28;;
64615;SDS011;51027;42.162;24.754;2023-06-26T13:41:10;16.08;;;6.70;;
64615;SDS011;51027;42.162;24.754;2023-06-26T13:43:36;15.20;;;6.15;;
64615;SDS011;51027;42.162;24.754;2023-06-26T13:46:01;13.85;;;4.95;;
64615;SDS011;51027;42.162;24.754;2023-06-26T13:48:28;12.27;;;4.80;;
64615;SDS011;51027;42.162;24.754;2023-06-26T13:50:54;12.35;;;4.25;;
64615;SDS011;51027;42.162;24.754;2023-06-26T13:53:20;12.00;;;4.10;;
64615;SDS011;51027;42.162;24.754;2023-06-26T13:55:50;11.35;;;4.05;;
64615;SDS011;51027;42.162;24.754;2023-06-26T13:58:16;12.13;;;4.40;;
64615;SDS011;51027;42.162;24.754;2023-06-26T14:00:48;15.65;;;6.35;;
64615;SDS011;51027;42.162;24.754;2023-06-26T14:03:15;13.90;;;5.07;;
64615;SDS011;51027;42.162;24.754;2023-06-26T14:05:40;13.80;;;4.55;;
64615;SDS011;51027;42.162;24.754;2023-06-26T14:08:07;12.55;;;4.65;;
64615;SDS011;51027;42.162;24.754;2023-06-26T14:10:33;13.95;;;4.68;;
64615;SDS011;51027;42.162;24.754;2023-06-26T14:12:59;12.75;;;4.40;;
64615;SDS011;51027;42.162;24.754;2023-06-26T14:15:25;13.98;;;4.68;;
64615;SDS011;51027;42.162;24.754;2023-06-26T14:17:51;15.35;;;5.05;;
64615;SDS011;51027;42.162;24.754;2023-06-26T14:20:17;15.68;;;4.75;;
64615;SDS011;51027;42.162;24.754;2023-06-26T14:22:45;17.10;;;4.57;;
64615;SDS011;51027;42.162;24.754;2023-06-26T14:25:11;12.45;;;4.50;;
64615;SDS011;51027;42.162;24.754;2023-06-26T14:27:39;13.10;;;4.55;;
64615;SDS011;51027;42.162;24.754;2023-06-26T14:30:05;12.45;;;5.00;;
64615;SDS011;51027;42.162;24.754;2023-06-26T14:32:31;13.52;;;4.75;;
64615;SDS011;51027;42.162;24.754;2023-06-26T14:34:57;16.38;;;5.80;;
64615;SDS011;51027;42.162;24.754;2023-06-26T14:37:23;18.20;;;6.00;;
64615;SDS011;51027;42.162;24.754;2023-06-26T14:39:49;17.08;;;5.28;;
64615;SDS011;51027;42.162;24.754;2023-06-26T14:42:14;16.35;;;5.60;;
64615;SDS011;51027;42.162;24.754;2023-06-26T14:44:40;17.33;;;5.93;;
64615;SDS011;51027;42.162;24.754;2023-06-26T14:47:05;16.38;;;5.57;;
64615;SDS011;51027;42.162;24.754;2023-06-26T14:49:31;16.02;;;5.50;;
64615;SDS011;51027;42.162;24.754;2023-06-26T14:51:56;14.60;;;5.15;;
64615;SDS011;51027;42.162;24.754;2023-06-26T14:54:22;14.05;;;5.50;;
64615;SDS011;51027;42.162;24.754;2023-06-26T14:56:47;16.15;;;5.50;;
64615;SDS011;51027;42.162;24.754;2023-06-26T14:59:13;15.85;;;5.32;;
64615;SDS011;51027;42.162;24.754;2023-06-26T15:01:38;14.00;;;4.78;;
64615;SDS011;51027;42.162;24.754;2023-06-26T15:04:10;15.60;;;5.78;;
64615;SDS011;51027;42.162;24.754;2023-06-26T15:06:36;15.02;;;4.90;;
64615;SDS011;51027;42.162;24.754;2023-06-26T15:09:01;13.02;;;4.72;;
64615;SDS011;51027;42.162;24.754;2023-06-26T15:11:28;16.00;;;5.00;;
64615;SDS011;51027;42.162;24.754;2023-06-26T15:13:55;12.48;;;5.03;;
64615;SDS011;51027;42.162;24.754;2023-06-26T15:16:20;16.55;;;5.45;;
64615;SDS011;51027;42.162;24.754;2023-06-26T15:18:46;13.35;;;5.47;;
64615;SDS011;51027;42.162;24.754;2023-06-26T15:21:11;14.95;;;5.05;;
64615;SDS011;51027;42.162;24.754;2023-06-26T15:23:37;14.02;;;4.70;;
64615;SDS011;51027;42.162;24.754;2023-06-26T15:26:03;14.48;;;5.18;;
64615;SDS011;51027;42.162;24.754;2023-06-26T15:28:29;13.32;;;4.90;;
64615;SDS011;51027;42.162;24.754;2023-06-26T15:30:55;13.43;;;5.13;;
64615;SDS011;51027;42.162;24.754;2023-06-26T15:33:20;14.00;;;4.88;;
64615;SDS011;51027;42.162;24.754;2023-06-26T15:35:46;18.23;;;5.85;;
64615;SDS011;51027;42.162;24.754;2023-06-26T15:38:11;14.60;;;5.35;;
64615;SDS011;51027;42.162;24.754;2023-06-26T15:40:37;14.68;;;6.10;;
64615;SDS011;51027;42.162;24.754;2023-06-26T15:43:02;16.80;;;5.55;;
64615;SDS011;51027;42.162;24.754;2023-06-26T15:45:28;15.88;;;5.90;;
64615;SDS011;51027;42.162;24.754;2023-06-26T15:47:54;14.45;;;4.93;;
64615;SDS011;51027;42.162;24.754;2023-06-26T15:50:20;16.52;;;6.38;;
64615;SDS011;51027;42.162;24.754;2023-06-26T15:52:45;13.82;;;5.53;;
64615;SDS011;51027;42.162;24.754;2023-06-26T15:55:11;13.68;;;4.70;;
64615;SDS011;51027;42.162;24.754;2023-06-26T15:57:37;15.80;;;5.25;;
64615;SDS011;51027;42.162;24.754;2023-06-26T16:00:03;12.30;;;4.93;;
64615;SDS011;51027;42.162;24.754;2023-06-26T16:02:30;13.75;;;4.82;;
64615;SDS011;51027;42.162;24.754;2023-06-26T16:04:55;16.88;;;5.32;;
64615;SDS011;51027;42.162;24.754;2023-06-26T16:07:21;13.93;;;5.45;;
64615;SDS011;51027;42.162;24.754;2023-06-26T16:09:47;15.15;;;5.30;;
64615;SDS011;51027;42.162;24.754;2023-06-26T16:12:12;14.82;;;5.13;;
64615;SDS011;51027;42.162;24.754;2023-06-26T16:14:39;16.10;;;5.65;;
64615;SDS011;51027;42.162;24.754;2023-06-26T16:17:05;14.57;;;5.32;;
64615;SDS011;51027;42.162;24.754;2023-06-26T16:19:31;15.82;;;5.95;;
64615;SDS011;51027;42.162;24.754;2023-06-26T16:21:57;14.73;;;5.18;;
64615;SDS011;51027;42.162;24.754;2023-06-26T16:24:22;14.93;;;6.32;;
64615;SDS011;51027;42.162;24.754;2023-06-26T16:26:48;14.75;;;5.78;;
64615;SDS011;51027;42.162;24.754;2023-06-26T16:29:13;16.95;;;6.20;;
64615;SDS011;51027;42.162;24.754;2023-06-26T16:31:39;15.50;;;5.15;;
64615;SDS011;51027;42.162;24.754;2023-06-26T16:34:05;14.15;;;5.55;;
64615;SDS011;51027;42.162;24.754;2023-06-26T16:36:30;15.82;;;5.75;;
64615;SDS011;51027;42.162;24.754;2023-06-26T16:38:55;17.27;;;6.60;;
64615;SDS011;51027;42.162;24.754;2023-06-26T16:41:21;17.27;;;6.90;;
64615;SDS011;51027;42.162;24.754;2023-06-26T16:43:48;14.80;;;5.78;;
64615;SDS011;51027;42.162;24.754;2023-06-26T16:46:14;14.75;;;6.10;;
64615;SDS011;51027;42.162;24.754;2023-06-26T16:48:40;14.70;;;6.32;;
64615;SDS011;51027;42.162;24.754;2023-06-26T16:51:05;15.88;;;6.10;;
64615;SDS011;51027;42.162;24.754;2023-06-26T16:53:31;16.00;;;5.97;;
64615;SDS011;51027;42.162;24.754;2023-06-26T16:55:56;16.75;;;5.93;;
64615;SDS011;51027;42.162;24.754;2023-06-26T16:58:22;16.40;;;6.13;;
64615;SDS011;51027;42.162;24.754;2023-06-26T17:00:47;15.23;;;6.03;;
64615;SDS011;51027;42.162;24.754;2023-06-26T17:03:13;15.35;;;6.07;;
64615;SDS011;51027;42.162;24.754;2023-06-26T17:05:39;14.35;;;6.25;;
64615;SDS011;51027;42.162;24.754;2023-06-26T17:08:04;16.40;;;6.20;;
64615;SDS011;51027;42.162;24.754;2023-06-26T17:10:32;17.80;;;6.88;;
64615;SDS011;51027;42.162;24.754;2023-06-26T17:12:57;16.25;;;6.50;;
64615;SDS011;51027;42.162;24.754;2023-06-26T17:15:23;15.30;;;6.60;;
64615;SDS011;51027;42.162;24.754;2023-06-26T17:17:48;18.65;;;6.47;;
64615;SDS011;51027;42.162;24.754;2023-06-26T17:20:14;17.80;;;6.10;;
64615;SDS011;51027;42.162;24.754;2023-06-26T17:22:39;17.08;;;6.43;;
64615;SDS011;51027;42.162;24.754;2023-06-26T17:25:08;16.33;;;5.63;;
64615;SDS011;51027;42.162;24.754;2023-06-26T17:27:37;15.43;;;6.40;;
64615;SDS011;51027;42.162;24.754;2023-06-26T17:30:03;14.13;;;5.75;;
64615;SDS011;51027;42.162;24.754;2023-06-26T17:32:29;14.98;;;5.90;;
64615;SDS011;51027;42.162;24.754;2023-06-26T17:34:55;15.30;;;6.18;;
64615;SDS011;51027;42.162;24.754;2023-06-26T17:37:20;16.75;;;5.70;;
64615;SDS011;51027;42.162;24.754;2023-06-26T17:39:52;15.20;;;5.43;;
64615;SDS011;51027;42.162;24.754;2023-06-26T17:42:22;13.27;;;5.40;;
64615;SDS011;51027;42.162;24.754;2023-06-26T17:44:48;16.40;;;6.32;;
64615;SDS011;51027;42.162;24.754;2023-06-26T17:47:14;15.18;;;5.63;;
64615;SDS011;51027;42.162;24.754;2023-06-26T17:49:39;17.10;;;5.95;;
64615;SDS011;51027;42.162;24.754;2023-06-26T17:52:05;15.95;;;6.03;;
64615;SDS011;51027;42.162;24.754;2023-06-26T17:54:31;15.30;;;6.03;;
64615;SDS011;51027;42.162;24.754;2023-06-26T17:56:57;16.40;;;6.53;;
64615;SDS011;51027;42.162;24.754;2023-06-26T17:59:22;17.02;;;6.60;;
64615;SDS011;51027;42.162;24.754;2023-06-26T18:01:51;17.52;;;6.85;;
64615;SDS011;51027;42.162;24.754;2023-06-26T18:04:16;15.13;;;6.07;;
64615;SDS011;51027;42.162;24.754;2023-06-26T18:06:42;17.33;;;6.75;;
64615;SDS011;51027;42.162;24.754;2023-06-26T18:09:07;17.23;;;6.80;;
64615;SDS011;51027;42.162;24.754;2023-06-26T18:11:33;16.55;;;7.38;;
64615;SDS011;51027;42.162;24.754;2023-06-26T18:14:03;16.45;;;6.32;;
64615;SDS011;51027;42.162;24.754;2023-06-26T18:16:28;14.75;;;6.45;;